createdAt,value
2023-04-18T00:03:02.417Z,100257.78
2023-04-18T00:06:06.996Z,100260.94
2023-04-18T00:09:09.260Z,100253.50
2023-04-18T00:12:12.776Z,100260.94
2023-04-18T00:15:15.061Z,100265.63
2023-04-18T00:18:17.417Z,100266.31
2023-04-18T00:21:20.100Z,100260.81
2023-04-18T00:24:22.344Z,100259.53
2023-04-18T00:27:24.636Z,100264.84
2023-04-18T00:30:27.160Z,100265.28
2023-04-18T00:33:29.444Z,100269.72
2023-04-18T00:36:31.828Z,100270.78
2023-04-18T00:39:35.629Z,100265.50
2023-04-18T00:42:37.901Z,100263.94
2023-04-18T00:45:40.196Z,100269.78
2023-04-18T00:48:42.651Z,100271.28
2023-04-18T00:51:45.563Z,100265.78
2023-04-18T00:54:48.213Z,100267.66
2023-04-18T00:57:51.102Z,100261.84
2023-04-18T01:00:54.780Z,100257.88
2023-04-18T01:03:57.095Z,100260.59
2023-04-18T01:07:01.044Z,100263.28
2023-04-18T01:10:05.560Z,100264.56
2023-04-18T01:13:15.096Z,100259.53
2023-04-18T01:16:17.627Z,100255.81
2023-04-18T01:19:20.044Z,100265.78
2023-04-18T01:22:22.623Z,100258.94
2023-04-18T01:25:25.151Z,100256.66
2023-04-18T01:28:27.880Z,100264.00
2023-04-18T01:31:36.059Z,100263.25
2023-04-18T01:34:38.436Z,100261.38
2023-04-18T01:37:41.548Z,100249.25
2023-04-18T01:40:44.153Z,100254.47
2023-04-18T01:43:47.156Z,100257.97
2023-04-18T01:46:49.450Z,100252.97
2023-04-18T01:49:51.984Z,100250.66
2023-04-18T01:52:54.216Z,100261.16
2023-04-18T01:55:58.406Z,100256.72
2023-04-18T01:59:00.730Z,100258.28
2023-04-18T02:02:03.761Z,100259.38
2023-04-18T02:05:06.671Z,100253.06
2023-04-18T02:08:09.002Z,100263.38
2023-04-18T02:11:13.086Z,100260.72
2023-04-18T02:14:15.843Z,100258.66
2023-04-18T02:17:18.456Z,100267.00
2023-04-18T02:20:20.932Z,100263.16
2023-04-18T02:23:23.244Z,100264.91
2023-04-18T02:26:25.798Z,100260.66
2023-04-18T02:29:28.139Z,100263.06
2023-04-18T02:32:30.642Z,100262.56
2023-04-18T02:35:32.919Z,100252.44
2023-04-18T02:38:35.396Z,100265.72
2023-04-18T02:41:39.324Z,100270.13
2023-04-18T02:44:41.646Z,100267.13
2023-04-18T02:47:54.401Z,100265.78
2023-04-18T02:51:05.545Z,100264.22
2023-04-18T02:54:10.256Z,100270.69
2023-04-18T02:57:25.969Z,100272.28
2023-04-18T03:00:55.468Z,100269.63
2023-04-18T03:04:26.940Z,100285.69
2023-04-18T03:07:41.029Z,100276.19
2023-04-18T03:10:43.261Z,100284.06
2023-04-18T03:13:46.076Z,100289.13
2023-04-18T03:16:50.448Z,100282.59
2023-04-18T03:19:57.979Z,100295.47
2023-04-18T03:23:00.477Z,100291.25
2023-04-18T03:26:08.862Z,100286.59
2023-04-18T03:29:14.271Z,100289.34
2023-04-18T03:32:19.858Z,100289.84
2023-04-18T03:35:22.364Z,100280.06
2023-04-18T03:38:25.436Z,100290.25
2023-04-18T03:41:28.912Z,100287.69
2023-04-18T03:44:34.148Z,100288.41
2023-04-18T03:47:36.542Z,100293.16
2023-04-18T03:50:38.884Z,100294.47
2023-04-18T03:53:44.643Z,100295.81
2023-04-18T03:56:46.957Z,100299.03
2023-04-18T03:59:50.335Z,100298.03
2023-04-18T04:02:52.902Z,100301.25
2023-04-18T04:05:56.997Z,100303.88
2023-04-18T04:08:59.472Z,100304.66
2023-04-18T04:12:03.521Z,100313.38
2023-04-18T04:15:06.525Z,100319.16
2023-04-18T04:18:10.106Z,100320.78
2023-04-18T04:21:15.978Z,100319.72
2023-04-18T04:24:23.561Z,100323.88
2023-04-18T04:27:27.101Z,100325.84
2023-04-18T04:30:30.597Z,100325.34
2023-04-18T04:33:34.061Z,100329.50
2023-04-18T04:36:41.312Z,100329.66
2023-04-18T04:39:46.181Z,100331.22
2023-04-18T04:43:12.511Z,100337.00
2023-04-18T04:46:16.118Z,100334.72
2023-04-18T04:49:18.750Z,100342.41
2023-04-18T04:52:21.228Z,100344.84
2023-04-18T04:55:24.587Z,100343.44
2023-04-18T04:58:27.173Z,100352.13
2023-04-18T05:01:35.192Z,100348.06
2023-04-18T05:04:37.871Z,100348.03
2023-04-18T05:07:40.335Z,100347.00
2023-04-18T05:10:43.397Z,100345.16
2023-04-18T05:13:45.836Z,100350.03
2023-04-18T05:16:48.148Z,100343.94
2023-04-18T05:19:51.162Z,100342.59
2023-04-18T05:22:53.640Z,100353.38
2023-04-18T05:25:56.073Z,100349.59
2023-04-18T05:28:58.387Z,100352.19
2023-04-18T05:32:01.708Z,100365.59
2023-04-18T05:35:04.404Z,100363.53
2023-04-18T05:38:06.962Z,100368.16
2023-04-18T05:41:09.383Z,100367.25
2023-04-18T05:44:11.717Z,100369.38
2023-04-18T05:47:14.007Z,100367.84
2023-04-18T05:50:16.395Z,100362.47
2023-04-18T05:53:18.991Z,100356.19
2023-04-18T05:56:21.475Z,100364.53
2023-04-18T05:59:24.031Z,100364.44
2023-04-18T06:02:26.663Z,100373.88
2023-04-18T06:05:29.864Z,100364.84
2023-04-18T06:08:32.478Z,100372.69
2023-04-18T06:11:35.732Z,100371.69
2023-04-18T06:14:38.185Z,100377.47
2023-04-18T06:17:41.587Z,100382.06
2023-04-18T06:20:45.373Z,100388.06
2023-04-18T06:23:48.150Z,100381.03
2023-04-18T06:26:50.464Z,100393.91
2023-04-18T06:29:52.754Z,100381.81
2023-04-18T06:32:55.089Z,100392.09
2023-04-18T06:35:58.081Z,100385.72
2023-04-18T06:39:00.638Z,100390.53
2023-04-18T06:42:04.832Z,100383.53
2023-04-18T06:45:07.671Z,100396.19
2023-04-18T06:48:10.892Z,100396.81
2023-04-18T06:51:14.200Z,100392.88
2023-04-18T06:54:16.715Z,100398.59
2023-04-18T06:57:19.277Z,100394.66
2023-04-18T07:00:21.894Z,100399.22
2023-04-18T07:03:24.383Z,100400.38
2023-04-18T07:06:27.483Z,100402.97
2023-04-18T07:09:29.771Z,100393.66
2023-04-18T07:12:32.289Z,100402.78
2023-04-18T07:15:36.223Z,100391.22
2023-04-18T07:18:38.764Z,100401.47
2023-04-18T07:21:43.787Z,100406.50
2023-04-18T07:24:46.328Z,100400.78
2023-04-18T07:27:48.550Z,100410.31
2023-04-18T07:30:51.542Z,100409.59
2023-04-18T07:33:54.728Z,100424.59
2023-04-18T07:36:57.674Z,100414.94
2023-04-18T07:40:00.236Z,100416.25
2023-04-18T07:43:02.779Z,100416.94
2023-04-18T07:46:06.338Z,100431.19
2023-04-18T07:49:08.650Z,100431.97
2023-04-18T07:52:10.983Z,100431.38
2023-04-18T07:55:16.094Z,100434.09
2023-04-18T07:58:18.526Z,100432.97
2023-04-18T08:01:24.232Z,100437.78
2023-04-18T08:04:29.068Z,100437.34
2023-04-18T08:07:32.348Z,100439.69
2023-04-18T08:10:36.437Z,100440.41
2023-04-18T08:13:38.966Z,100440.41
2023-04-18T08:16:41.508Z,100442.97
2023-04-18T08:19:45.989Z,100437.81
2023-04-18T08:23:05.209Z,100441.59
2023-04-18T08:26:09.177Z,100445.53
2023-04-18T08:29:13.062Z,100442.25
2023-04-18T08:32:15.659Z,100437.66
2023-04-18T08:35:17.925Z,100439.56
2023-04-18T08:38:20.297Z,100449.66
2023-04-18T08:41:25.760Z,100453.41
2023-04-18T08:44:29.820Z,100460.13
2023-04-18T08:47:35.397Z,100454.19
2023-04-18T08:50:37.866Z,100448.09
2023-04-18T08:53:42.763Z,100447.78
2023-04-18T08:56:45.886Z,100458.88
2023-04-18T08:59:50.870Z,100456.22
2023-04-18T09:02:59.435Z,100457.00
2023-04-18T09:06:13.990Z,100455.13
2023-04-18T09:09:17.006Z,100456.31
2023-04-18T09:12:24.411Z,100452.53
2023-04-18T09:15:29.454Z,100448.63
2023-04-18T09:18:32.632Z,100456.97
2023-04-18T09:21:36.177Z,100457.13
2023-04-18T09:24:39.027Z,100455.63
2023-04-18T09:27:41.994Z,100462.16
2023-04-18T09:30:44.490Z,100448.03
2023-04-18T09:33:57.535Z,100461.94
2023-04-18T09:37:10.072Z,100447.22
2023-04-18T09:40:19.714Z,100443.53
2023-04-18T09:43:22.836Z,100452.03
2023-04-18T09:46:27.457Z,100443.44
2023-04-18T09:49:30.165Z,100443.50
2023-04-18T09:52:36.019Z,100432.97
2023-04-18T09:55:42.199Z,100439.50
2023-04-18T09:58:48.166Z,100433.38
2023-04-18T10:01:51.576Z,100429.78
2023-04-18T10:04:55.685Z,100431.59
2023-04-18T10:07:59.928Z,100438.31
2023-04-18T10:11:02.639Z,100403.41
2023-04-18T10:14:09.849Z,100427.13
2023-04-18T10:17:14.978Z,100442.38
2023-04-18T10:20:20.462Z,100433.72
2023-04-18T10:23:42.068Z,100433.53
2023-04-18T10:26:47.706Z,100428.31
2023-04-18T10:29:54.277Z,100426.31
2023-04-18T10:32:56.668Z,100407.19
2023-04-18T10:36:03.179Z,100431.72
2023-04-18T10:39:26.297Z,100431.34
2023-04-18T10:42:47.470Z,100434.34
2023-04-18T10:46:31.715Z,100416.84
2023-04-18T11:05:10.262Z,100422.16
2023-04-18T11:08:25.710Z,100426.41
2023-04-18T11:11:27.996Z,100417.97
2023-04-18T11:14:44.063Z,100422.53
2023-04-18T11:17:46.599Z,100426.78
2023-04-18T11:20:53.189Z,100424.34
2023-04-18T11:23:56.769Z,100431.59
2023-04-18T11:27:00.364Z,100429.28
2023-04-18T11:30:03.057Z,100429.66
2023-04-18T11:33:10.076Z,100431.50
2023-04-18T11:36:13.384Z,100441.56
2023-04-18T11:39:15.918Z,100431.59
2023-04-18T11:42:18.260Z,100426.69
2023-04-18T11:45:20.912Z,100421.13
2023-04-18T11:48:24.009Z,100420.47
2023-04-18T11:51:35.838Z,100426.78
2023-04-18T11:54:38.846Z,100422.16
2023-04-18T11:57:42.012Z,100416.16
2023-04-18T12:00:44.528Z,100411.78
2023-04-18T12:04:06.810Z,100412.78
2023-04-18T12:07:09.603Z,100413.75
2023-04-18T12:10:21.111Z,100413.16
2023-04-18T12:13:32.420Z,100410.09
2023-04-18T12:16:35.127Z,100411.59
2023-04-18T12:19:38.010Z,100407.78
2023-04-18T12:22:49.585Z,100410.38
2023-04-18T12:26:08.489Z,100406.06
2023-04-18T12:29:11.739Z,100406.19
2023-04-18T12:32:14.145Z,100406.00
2023-04-18T12:35:18.976Z,100417.03
2023-04-18T12:38:22.415Z,100410.91
2023-04-18T12:41:24.732Z,100410.50
2023-04-18T12:44:27.081Z,100411.19
2023-04-18T12:47:29.985Z,100412.38
2023-04-18T12:50:32.885Z,100415.38
2023-04-18T12:53:35.277Z,100411.31
2023-04-18T12:56:37.909Z,100405.22
2023-04-18T12:59:40.220Z,100405.81
2023-04-18T13:02:44.546Z,100397.25
2023-04-18T13:05:47.548Z,100399.81
2023-04-18T13:08:50.033Z,100400.69
2023-04-18T13:11:52.832Z,100404.16
2023-04-18T13:14:55.223Z,100409.28
2023-04-18T13:17:57.640Z,100388.00
2023-04-18T13:21:00.147Z,100401.63
2023-04-18T13:24:02.463Z,100394.91
2023-04-18T13:27:10.412Z,100400.00
2023-04-18T13:30:13.060Z,100412.47
2023-04-18T13:33:17.736Z,100410.44
2023-04-18T13:36:20.063Z,100405.41
2023-04-18T13:39:24.562Z,100400.03
2023-04-18T13:42:26.859Z,100396.13
2023-04-18T13:45:29.234Z,100407.00
2023-04-18T13:48:31.548Z,100410.50
2023-04-18T13:51:34.682Z,100406.63
2023-04-18T13:54:37.970Z,100404.75
2023-04-18T13:57:41.251Z,100389.91
2023-04-18T14:00:43.627Z,100398.38
2023-04-18T14:03:47.572Z,100410.75
2023-04-18T14:06:50.547Z,100413.25
2023-04-18T14:09:53.950Z,100398.78
2023-04-18T14:12:57.275Z,100405.16
2023-04-18T14:16:00.326Z,100394.50
2023-04-18T14:19:02.760Z,100395.28
2023-04-18T14:22:05.359Z,100384.78
2023-04-18T14:25:10.870Z,100389.69
2023-04-18T14:28:13.257Z,100394.53
2023-04-18T14:31:16.302Z,100399.88
2023-04-18T14:34:18.574Z,100396.97
2023-04-18T14:37:21.286Z,100402.88
2023-04-18T14:40:24.126Z,100397.97
2023-04-18T14:43:27.256Z,100398.56
2023-04-18T14:46:30.657Z,100402.13
2023-04-18T14:49:33.783Z,100404.69
2023-04-18T14:52:36.315Z,100408.09
2023-04-18T14:55:39.138Z,100397.53
2023-04-18T14:58:41.606Z,100397.34
2023-04-18T15:01:43.917Z,100404.59
2023-04-18T15:04:46.372Z,100401.34
2023-04-18T15:07:48.799Z,100395.75
2023-04-18T15:10:51.134Z,100392.69
2023-04-18T15:13:53.459Z,100391.09
2023-04-18T15:16:56.049Z,100393.19
2023-04-18T15:19:59.294Z,100392.00
2023-04-18T15:23:02.890Z,100392.06
2023-04-18T15:26:05.310Z,100392.44
2023-04-18T15:29:07.870Z,100387.94
2023-04-18T15:32:10.392Z,100386.31
2023-04-18T15:35:12.933Z,100385.72
2023-04-18T15:38:15.954Z,100389.03
2023-04-18T15:41:18.462Z,100389.00
2023-04-18T15:44:21.633Z,100387.22
2023-04-18T15:47:23.938Z,100399.56
2023-04-18T15:50:26.262Z,100397.41
2023-04-18T15:53:28.668Z,100396.59
2023-04-18T15:56:33.757Z,100393.31
2023-04-18T15:59:36.331Z,100406.22
2023-04-18T16:02:38.950Z,100402.09
2023-04-18T16:05:41.488Z,100399.41
2023-04-18T16:08:43.836Z,100402.44
2023-04-18T16:11:46.083Z,100400.28
2023-04-18T16:14:48.375Z,100402.94
2023-04-18T16:17:50.692Z,100409.22
2023-04-18T16:20:53.196Z,100406.25
2023-04-18T16:23:55.847Z,100407.09
2023-04-18T16:26:58.645Z,100410.84
2023-04-18T16:30:01.189Z,100415.16
2023-04-18T16:33:04.282Z,100408.13
2023-04-18T16:36:07.222Z,100410.97
2023-04-18T16:39:09.522Z,100416.16
2023-04-18T16:42:14.051Z,100413.72
2023-04-18T16:45:17.967Z,100415.13
2023-04-18T16:48:20.720Z,100417.81
2023-04-18T16:51:23.227Z,100421.56
2023-04-18T16:54:25.507Z,100410.94
2023-04-18T16:57:28.053Z,100421.28
2023-04-18T17:00:30.442Z,100419.59
2023-04-18T17:03:33.270Z,100426.31
2023-04-18T17:06:35.736Z,100423.78
2023-04-18T17:09:38.072Z,100412.22
2023-04-18T17:12:40.777Z,100431.34
2023-04-18T17:15:44.013Z,100430.56
2023-04-18T17:18:46.435Z,100429.63
2023-04-18T17:21:51.054Z,100432.44
2023-04-18T17:24:53.733Z,100435.09
2023-04-18T17:27:56.045Z,100423.47
2023-04-18T17:30:58.650Z,100430.19
2023-04-18T17:34:01.203Z,100434.53
2023-04-18T17:37:03.482Z,100436.84
2023-04-18T17:40:09.992Z,100434.50
2023-04-18T17:43:12.858Z,100443.19
2023-04-18T17:46:15.508Z,100444.81
2023-04-18T17:49:17.789Z,100434.38
2023-04-18T17:52:21.449Z,100453.56
2023-04-18T17:55:24.258Z,100450.19
2023-04-18T17:58:27.357Z,100449.50
2023-04-18T18:01:30.571Z,100457.28
2023-04-18T18:04:33.133Z,100456.91
2023-04-18T18:07:37.573Z,100459.66
2023-04-18T18:10:41.160Z,100463.22
2023-04-18T18:13:44.356Z,100462.59
2023-04-18T18:16:47.028Z,100464.22
2023-04-18T18:19:49.480Z,100478.13
2023-04-18T18:22:54.038Z,100472.03
2023-04-18T18:25:57.062Z,100469.00
2023-04-18T18:28:59.413Z,100467.53
2023-04-18T18:32:01.886Z,100470.19
2023-04-18T18:35:06.061Z,100477.88
2023-04-18T18:38:08.891Z,100480.81
2023-04-18T18:41:11.158Z,100473.16
2023-04-18T18:44:13.422Z,100479.84
2023-04-18T18:47:17.197Z,100474.53
2023-04-18T18:50:19.624Z,100479.66
2023-04-18T18:53:22.318Z,100487.44
2023-04-18T18:56:25.413Z,100487.22
2023-04-18T18:59:27.746Z,100491.56
2023-04-18T19:02:30.078Z,100500.41
2023-04-18T19:05:32.529Z,100502.88
2023-04-18T19:08:35.459Z,100510.16
2023-04-18T19:11:39.126Z,100512.53
2023-04-18T19:14:42.456Z,100514.41
2023-04-18T19:17:44.977Z,100527.44
2023-04-18T19:20:47.499Z,100531.53
2023-04-18T19:23:49.925Z,100530.97
2023-04-18T19:26:52.689Z,100531.03
2023-04-18T19:29:55.045Z,100528.50
2023-04-18T19:32:57.474Z,100524.44
2023-04-18T19:35:59.817Z,100531.81
2023-04-18T19:39:02.092Z,100531.16
2023-04-18T19:42:05.249Z,100526.34
2023-04-18T19:45:07.981Z,100540.88
2023-04-18T19:48:10.608Z,100548.13
2023-04-18T19:51:12.961Z,100545.56
2023-04-18T19:54:15.411Z,100541.28
2023-04-18T19:57:17.784Z,100557.84
2023-04-18T20:00:25.210Z,100549.41
2023-04-18T20:03:27.867Z,100547.56
2023-04-18T20:06:31.104Z,100546.56
2023-04-18T20:09:33.458Z,100546.66
2023-04-18T20:12:35.912Z,100545.31
2023-04-18T20:15:38.840Z,100540.88
2023-04-18T20:18:41.881Z,100544.59
2023-04-18T20:21:44.366Z,100545.97
2023-04-18T20:24:48.739Z,100540.38
2023-04-18T20:27:51.835Z,100537.84
2023-04-18T20:30:54.303Z,100544.13
2023-04-18T20:33:56.680Z,100550.72
2023-04-18T20:37:00.078Z,100546.78
2023-04-18T20:40:08.485Z,100545.44
2023-04-18T20:43:12.776Z,100548.97
2023-04-18T20:46:16.196Z,100538.75
2023-04-18T20:49:18.479Z,100555.84
2023-04-18T20:52:23.991Z,100557.38
2023-04-18T20:55:26.293Z,100557.69
2023-04-18T20:58:29.724Z,100559.16
2023-04-18T21:01:32.167Z,100549.84
2023-04-18T21:04:34.634Z,100561.50
2023-04-18T21:07:37.196Z,100553.38
2023-04-18T21:10:39.959Z,100548.56
2023-04-18T21:13:42.390Z,100545.41
2023-04-18T21:16:44.849Z,100553.56
2023-04-18T21:19:48.370Z,100546.41
2023-04-18T21:22:50.794Z,100546.59
2023-04-18T21:25:53.047Z,100546.00
2023-04-18T21:29:05.475Z,100543.34
2023-04-18T21:32:07.957Z,100541.84
2023-04-18T21:35:10.357Z,100530.16
2023-04-18T21:38:12.947Z,100537.34
2023-04-18T21:41:16.919Z,100533.75
2023-04-18T21:44:19.292Z,100533.75
2023-04-18T21:47:22.152Z,100529.56
2023-04-18T21:50:24.696Z,100532.22
2023-04-18T21:53:26.948Z,100530.94
2023-04-18T21:56:29.212Z,100529.66
2023-04-18T21:59:31.880Z,100530.19
2023-04-18T22:02:34.580Z,100524.69
2023-04-18T22:05:39.220Z,100528.41
2023-04-18T22:08:42.283Z,100524.19
2023-04-18T22:11:44.569Z,100524.09
2023-04-18T22:14:48.514Z,100517.69
2023-04-18T22:17:50.862Z,100519.69
2023-04-18T22:20:53.841Z,100517.78
2023-04-18T22:23:56.208Z,100515.44
2023-04-18T22:26:58.625Z,100517.72
2023-04-18T22:30:01.031Z,100510.88
2023-04-18T22:33:03.386Z,100505.34
2023-04-18T22:36:06.062Z,100502.44
2023-04-18T22:39:08.393Z,100505.84
2023-04-18T22:42:10.737Z,100501.63
2023-04-18T22:45:13.698Z,100498.38
2023-04-18T22:48:17.085Z,100485.63
2023-04-18T22:51:20.398Z,100494.06
2023-04-18T22:54:22.741Z,100492.50
2023-04-18T22:57:25.090Z,100482.28
2023-04-18T23:00:27.434Z,100489.16
2023-04-18T23:03:32.015Z,100483.34
2023-04-18T23:06:36.752Z,100484.94
2023-04-18T23:09:39.250Z,100481.22
2023-04-18T23:12:41.727Z,100474.13
2023-04-18T23:15:44.113Z,100468.44
2023-04-18T23:18:46.526Z,100470.00
2023-04-18T23:21:49.673Z,100456.34
2023-04-18T23:24:52.338Z,100463.63
2023-04-18T23:27:54.618Z,100466.09
2023-04-18T23:30:56.871Z,100456.16
2023-04-18T23:33:59.365Z,100451.75
2023-04-18T23:37:01.667Z,100449.59
2023-04-18T23:40:06.835Z,100443.03
2023-04-18T23:43:09.461Z,100436.75
2023-04-18T23:46:14.723Z,100434.13
2023-04-18T23:49:17.019Z,100438.91
2023-04-18T23:52:19.309Z,100427.06
2023-04-18T23:55:21.739Z,100427.31
2023-04-18T23:58:24.079Z,100425.78
